createdAt,value
2022-12-08T00:01:40.986Z,83.23
2022-12-08T00:04:09.020Z,83.95
2022-12-08T00:06:56.298Z,85.96
2022-12-08T00:09:32.005Z,88.14
2022-12-08T00:12:02.824Z,88.14
2022-12-08T00:14:32.638Z,87.18
2022-12-08T00:17:01.489Z,87.73
2022-12-08T00:19:29.471Z,86.52
2022-12-08T00:21:58.315Z,86.05
2022-12-08T00:24:32.481Z,85.53
2022-12-08T00:27:00.337Z,84.04
2022-12-08T00:29:28.485Z,86.17
2022-12-08T00:31:56.431Z,86.88
2022-12-08T00:34:24.437Z,87.26
2022-12-08T00:36:54.320Z,86.86
2022-12-08T00:39:22.108Z,86.67
2022-12-08T00:42:20.183Z,88.20
2022-12-08T00:44:48.569Z,88.08
2022-12-08T00:47:19.769Z,87.05
2022-12-08T00:49:50.110Z,86.76
2022-12-08T00:52:17.856Z,85.66
2022-12-08T00:54:45.858Z,85.43
2022-12-08T00:57:15.068Z,84.38
2022-12-08T00:59:42.821Z,83.28
2022-12-08T01:02:10.692Z,84.26
2022-12-08T01:04:40.606Z,84.19
2022-12-08T01:07:11.018Z,83.53
2022-12-08T01:09:39.122Z,83.76
2022-12-08T01:12:09.911Z,84.13
2022-12-08T01:14:39.108Z,84.59
2022-12-08T01:17:06.975Z,83.61
2022-12-08T01:19:38.763Z,84.02
2022-12-08T01:22:08.570Z,85.53
2022-12-08T01:24:38.801Z,85.77
2022-12-08T01:27:06.654Z,85.20
2022-12-08T01:29:34.653Z,85.23
2022-12-08T01:32:03.903Z,84.72
2022-12-08T01:34:31.802Z,83.82
2022-12-08T01:36:59.660Z,82.96
2022-12-08T01:39:27.511Z,85.07
2022-12-08T01:41:55.391Z,85.90
2022-12-08T01:44:55.573Z,85.13
2022-12-08T01:47:30.926Z,84.65
2022-12-08T01:49:59.064Z,85.55
2022-12-08T01:52:30.568Z,84.53
2022-12-08T01:55:02.833Z,84.45
2022-12-08T01:57:35.266Z,85.03
2022-12-08T02:00:08.711Z,85.28
2022-12-08T02:02:48.150Z,84.87
2022-12-08T02:05:17.356Z,83.83
2022-12-08T02:07:45.700Z,83.04
2022-12-08T02:10:18.038Z,83.40
2022-12-08T02:12:46.134Z,83.04
2022-12-08T02:15:14.827Z,83.43
2022-12-08T02:17:57.993Z,84.97
2022-12-08T02:20:39.114Z,84.77
2022-12-08T02:23:19.934Z,85.85
2022-12-08T02:26:13.912Z,85.23
2022-12-08T02:29:05.435Z,85.32
2022-12-08T02:31:45.847Z,85.41
2022-12-08T02:34:25.994Z,84.87
2022-12-08T02:37:01.732Z,85.78
2022-12-08T02:39:38.374Z,85.68
2022-12-08T02:42:13.037Z,85.83
2022-12-08T02:44:46.679Z,86.02
2022-12-08T02:47:18.742Z,86.18
2022-12-08T02:49:47.879Z,85.23
2022-12-08T02:52:41.693Z,84.38
2022-12-08T02:55:23.907Z,85.36
2022-12-08T02:58:15.038Z,85.63
2022-12-08T03:00:54.834Z,84.01
2022-12-08T03:03:33.037Z,84.64
2022-12-08T03:06:11.466Z,85.60
2022-12-08T03:08:47.560Z,86.00
2022-12-08T03:11:21.112Z,85.37
2022-12-08T03:13:52.967Z,85.54
2022-12-08T03:16:25.461Z,84.44
2022-12-08T03:19:00.499Z,84.01
2022-12-08T03:21:30.891Z,84.47
2022-12-08T03:23:58.894Z,84.76
2022-12-08T03:26:31.790Z,84.54
2022-12-08T03:28:59.857Z,84.75
2022-12-08T03:31:36.110Z,83.70
2022-12-08T03:34:06.325Z,84.98
2022-12-08T03:36:38.588Z,85.71
2022-12-08T03:39:06.416Z,85.99
2022-12-08T03:41:34.276Z,85.91
2022-12-08T03:44:02.095Z,85.44
2022-12-08T03:48:58.684Z,84.54
2022-12-08T03:51:27.167Z,84.35
2022-12-08T03:53:56.415Z,84.64
2022-12-08T03:56:26.543Z,83.38
2022-12-08T03:58:55.942Z,83.94
2022-12-08T04:01:24.802Z,83.68
2022-12-08T04:03:53.071Z,83.80
2022-12-08T04:06:22.376Z,83.97
2022-12-08T04:08:50.207Z,83.53
2022-12-08T04:11:20.165Z,84.32
2022-12-08T04:13:48.263Z,84.27
2022-12-08T04:16:17.828Z,84.28
2022-12-08T04:18:45.930Z,84.56
2022-12-08T04:21:14.212Z,84.00
2022-12-08T04:23:42.394Z,83.18
2022-12-08T04:26:13.318Z,82.52
2022-12-08T04:28:42.570Z,83.99
2022-12-08T04:31:10.866Z,84.98
2022-12-08T04:33:38.731Z,85.18
2022-12-08T04:36:07.941Z,85.52
2022-12-08T04:38:36.061Z,84.57
2022-12-08T04:41:03.882Z,85.14
2022-12-08T04:43:34.105Z,84.36
2022-12-08T04:46:03.218Z,84.44
2022-12-08T04:48:31.002Z,84.32
2022-12-08T04:50:58.831Z,83.62
2022-12-08T04:53:27.103Z,82.18
2022-12-08T04:55:57.024Z,83.40
2022-12-08T04:58:24.789Z,84.54
2022-12-08T05:00:52.717Z,84.33
2022-12-08T05:03:28.528Z,84.41
2022-12-08T05:05:56.999Z,84.25
2022-12-08T05:08:24.854Z,84.07
2022-12-08T05:10:52.818Z,84.61
2022-12-08T05:13:20.682Z,86.55
2022-12-08T05:15:48.517Z,85.49
2022-12-08T05:18:16.540Z,85.77
2022-12-08T05:20:48.128Z,86.65
2022-12-08T05:23:16.143Z,86.34
2022-12-08T05:25:46.507Z,86.36
2022-12-08T05:28:40.236Z,85.96
2022-12-08T05:31:02.129Z,86.14
2022-12-08T05:33:29.958Z,86.06
2022-12-08T05:35:59.312Z,86.42
2022-12-08T05:38:27.200Z,87.20
2022-12-08T05:40:55.032Z,87.94
2022-12-08T05:43:22.954Z,88.47
2022-12-08T05:45:50.873Z,88.88
2022-12-08T05:48:18.874Z,87.95
2022-12-08T05:50:48.111Z,87.85
2022-12-08T05:53:18.038Z,87.89
2022-12-08T05:55:46.399Z,87.33
2022-12-08T05:58:16.214Z,87.82
2022-12-08T06:00:44.886Z,87.94
2022-12-08T06:03:13.432Z,87.83
2022-12-08T06:05:42.074Z,87.88
2022-12-08T06:08:10.377Z,87.57
2022-12-08T06:10:40.880Z,88.81
2022-12-08T06:13:09.131Z,88.63
2022-12-08T06:15:37.876Z,88.09
2022-12-08T06:18:06.797Z,88.10
2022-12-08T06:20:36.340Z,88.09
2022-12-08T06:23:04.204Z,88.79
2022-12-08T06:25:31.897Z,88.04
2022-12-08T06:28:01.231Z,88.86
2022-12-08T06:30:29.032Z,89.58
2022-12-08T06:32:56.858Z,89.77
2022-12-08T06:35:24.734Z,88.77
2022-12-08T06:37:52.471Z,88.82
2022-12-08T06:40:20.372Z,89.06
2022-12-08T06:42:48.372Z,88.86
2022-12-08T06:45:18.936Z,89.23
2022-12-08T06:47:46.831Z,90.46
2022-12-08T06:50:16.857Z,90.38
2022-12-08T06:52:58.232Z,89.88
2022-12-08T06:58:20.175Z,89.17
2022-12-08T07:00:49.419Z,89.06
2022-12-08T07:03:17.251Z,87.97
2022-12-08T07:05:45.103Z,87.71
2022-12-08T07:08:15.574Z,86.79
2022-12-08T07:10:43.503Z,87.15
2022-12-08T07:13:13.681Z,86.90
2022-12-08T07:15:41.447Z,87.14
2022-12-08T07:18:10.601Z,87.26
2022-12-08T07:20:38.711Z,86.97
2022-12-08T07:23:06.427Z,86.05
2022-12-08T07:25:34.176Z,86.31
2022-12-08T07:28:01.907Z,85.52
2022-12-08T07:30:32.639Z,85.32
2022-12-08T07:33:00.416Z,86.93
2022-12-08T07:35:32.281Z,87.02
2022-12-08T07:38:02.151Z,86.78
2022-12-08T07:40:30.006Z,86.97
2022-12-08T07:42:57.818Z,87.40
2022-12-08T07:45:31.284Z,86.98
2022-12-08T07:47:59.944Z,86.29
2022-12-08T07:50:27.731Z,84.40
2022-12-08T07:52:57.066Z,84.66
2022-12-08T07:55:28.670Z,84.44
2022-12-08T07:57:56.694Z,83.73
2022-12-08T08:00:24.835Z,82.62
2022-12-08T08:02:52.770Z,81.70
2022-12-08T08:05:20.799Z,81.36
2022-12-08T08:07:48.682Z,81.86
2022-12-08T08:10:20.387Z,81.71
2022-12-08T08:12:48.536Z,81.79
2022-12-08T08:15:17.422Z,80.20
2022-12-08T08:17:45.388Z,79.11
2022-12-08T08:20:14.180Z,80.75
2022-12-08T08:22:41.983Z,81.36
2022-12-08T08:25:11.902Z,80.65
2022-12-08T08:27:41.262Z,80.10
2022-12-08T08:30:16.564Z,79.59
2022-12-08T08:32:49.047Z,79.46
2022-12-08T08:35:17.685Z,79.81
2022-12-08T08:37:48.843Z,79.67
2022-12-08T08:40:17.362Z,79.84
2022-12-08T08:42:46.572Z,79.35
2022-12-08T08:45:14.421Z,77.58
2022-12-08T08:47:42.216Z,78.58
2022-12-08T08:50:10.272Z,78.44
2022-12-08T08:52:40.556Z,79.61
2022-12-08T08:55:08.767Z,78.21
2022-12-08T08:57:36.609Z,77.37
2022-12-08T09:00:09.985Z,77.55
2022-12-08T09:02:38.409Z,77.51
2022-12-08T09:05:08.941Z,76.98
2022-12-08T09:07:36.911Z,75.91
2022-12-08T09:10:05.534Z,75.87
2022-12-08T09:12:33.667Z,75.46
2022-12-08T09:15:01.433Z,74.79
2022-12-08T09:17:30.537Z,74.44
2022-12-08T09:19:58.371Z,74.69
2022-12-08T09:22:26.200Z,74.13
2022-12-08T09:24:56.151Z,74.30
2022-12-08T09:27:23.942Z,75.14
2022-12-08T09:29:51.806Z,73.08
2022-12-08T09:32:19.548Z,73.75
2022-12-08T09:34:52.082Z,73.32
2022-12-08T09:37:20.172Z,74.10
2022-12-08T09:39:50.153Z,72.95
2022-12-08T09:42:31.439Z,73.41
2022-12-08T09:45:06.923Z,74.67
2022-12-08T09:47:41.111Z,72.83
2022-12-08T09:50:16.753Z,72.78
2022-12-08T09:52:48.319Z,74.27
2022-12-08T09:55:24.594Z,71.90
2022-12-08T09:58:03.549Z,73.09
2022-12-08T10:00:31.709Z,72.95
2022-12-08T10:03:01.894Z,72.29
2022-12-08T10:05:35.266Z,73.46
2022-12-08T10:08:13.326Z,71.94
2022-12-08T10:10:48.433Z,72.14
2022-12-08T10:13:23.171Z,72.08
2022-12-08T10:15:59.051Z,71.66
2022-12-08T10:18:30.559Z,70.38
2022-12-08T10:21:11.717Z,69.84
2022-12-08T10:23:46.031Z,69.23
2022-12-08T10:26:15.994Z,70.11
2022-12-08T10:28:45.510Z,69.36
2022-12-08T10:31:19.028Z,69.84
2022-12-08T10:33:49.238Z,69.25
2022-12-08T10:36:18.588Z,69.16
2022-12-08T10:38:46.376Z,66.56
2022-12-08T10:41:18.121Z,66.87
2022-12-08T10:43:49.340Z,67.64
2022-12-08T10:46:19.844Z,68.42
2022-12-08T10:48:54.149Z,68.40
2022-12-08T10:51:28.945Z,68.59
2022-12-08T10:53:57.116Z,67.99
2022-12-08T10:56:28.742Z,69.13
2022-12-08T10:59:13.638Z,67.44
2022-12-08T11:01:43.760Z,68.41
2022-12-08T11:04:16.572Z,68.43
2022-12-08T11:06:46.509Z,67.80
2022-12-08T11:09:27.304Z,67.34
2022-12-08T11:11:58.246Z,68.25
2022-12-08T11:14:30.155Z,68.73
2022-12-08T11:17:06.637Z,68.16
2022-12-08T11:19:38.825Z,69.11
2022-12-08T11:22:22.112Z,68.85
2022-12-08T11:24:58.578Z,68.73
2022-12-08T11:27:27.139Z,69.31
2022-12-08T11:29:55.174Z,68.24
2022-12-08T11:32:23.622Z,68.72
2022-12-08T11:34:57.015Z,67.14
2022-12-08T11:37:34.639Z,67.83
2022-12-08T11:40:08.144Z,67.49
2022-12-08T11:42:52.864Z,68.24
2022-12-08T11:45:25.709Z,67.80
2022-12-08T11:48:02.835Z,67.68
2022-12-08T11:50:38.920Z,68.27
2022-12-08T11:53:14.822Z,68.65
2022-12-08T11:55:49.685Z,68.05
2022-12-08T11:58:22.723Z,67.06
2022-12-08T12:00:53.798Z,67.58
2022-12-08T12:03:30.196Z,67.43
2022-12-08T12:06:54.098Z,66.57
2022-12-08T12:09:36.513Z,67.10
2022-12-08T12:12:16.896Z,65.62
2022-12-08T12:15:06.667Z,65.95
2022-12-08T12:17:43.810Z,66.47
2022-12-08T12:20:20.606Z,66.42
2022-12-08T12:22:54.317Z,67.14
2022-12-08T12:25:26.405Z,65.93
2022-12-08T12:28:00.392Z,67.13
2022-12-08T12:30:30.130Z,67.09
2022-12-08T12:33:01.474Z,67.02
2022-12-08T12:35:34.720Z,66.59
2022-12-08T12:38:27.351Z,67.76
2022-12-08T12:41:03.149Z,67.92
2022-12-08T12:43:36.090Z,66.74
2022-12-08T12:46:42.987Z,67.80
2022-12-08T12:49:48.691Z,68.29
2022-12-08T12:52:48.574Z,67.79
2022-12-08T12:55:52.307Z,67.66
2022-12-08T12:58:40.923Z,66.88
2022-12-08T13:01:52.044Z,67.21
2022-12-08T13:04:20.519Z,67.74
2022-12-08T13:06:52.230Z,69.00
2022-12-08T13:09:22.673Z,69.01
2022-12-08T13:11:53.639Z,71.43
2022-12-08T13:14:29.971Z,70.82
2022-12-08T13:17:02.374Z,71.23
2022-12-08T13:19:34.395Z,71.24
2022-12-08T13:22:02.457Z,70.44
2022-12-08T13:24:34.813Z,70.96
2022-12-08T13:27:34.014Z,71.06
2022-12-08T13:30:42.823Z,70.95
2022-12-08T13:33:18.546Z,70.38
2022-12-08T13:35:56.220Z,70.30
2022-12-08T13:38:29.084Z,70.32
2022-12-08T13:40:58.014Z,69.42
2022-12-08T13:43:51.045Z,69.88
2022-12-08T13:56:43.385Z,69.33
2022-12-08T13:58:06.081Z,69.14
2022-12-08T14:00:34.165Z,68.84
2022-12-08T14:03:03.680Z,68.80
2022-12-08T14:06:10.318Z,68.67
2022-12-08T14:11:34.545Z,69.05
2022-12-08T14:14:09.827Z,69.20
2022-12-08T14:16:40.920Z,68.39
2022-12-08T14:19:18.874Z,69.32
2022-12-08T14:21:55.080Z,68.20
2022-12-08T14:24:24.055Z,68.15
2022-12-08T14:26:54.642Z,67.00
2022-12-08T14:29:37.072Z,66.61
2022-12-08T14:32:05.683Z,67.94
2022-12-08T14:34:40.504Z,68.73
2022-12-08T14:37:13.753Z,68.59
2022-12-08T14:39:41.933Z,68.62
2022-12-08T14:42:23.423Z,68.04
2022-12-08T14:44:59.255Z,68.27
2022-12-08T14:47:30.989Z,67.48
2022-12-08T14:50:03.502Z,67.93
2022-12-08T14:52:34.096Z,68.20
2022-12-08T14:55:02.000Z,68.91
2022-12-08T14:57:36.239Z,68.60
2022-12-08T15:00:12.307Z,68.63
2022-12-08T15:02:46.576Z,69.13
2022-12-08T15:05:20.059Z,69.48
2022-12-08T15:07:50.874Z,69.74
2022-12-08T15:10:26.345Z,69.89
2022-12-08T15:13:02.611Z,70.28
2022-12-08T15:15:31.869Z,70.85
2022-12-08T15:18:03.626Z,70.44
2022-12-08T15:20:44.018Z,71.02
2022-12-08T15:23:22.289Z,71.88
2022-12-08T15:25:50.790Z,71.62
2022-12-08T15:28:22.041Z,71.23
2022-12-08T15:30:52.692Z,71.37
2022-12-08T15:33:20.843Z,71.80
2022-12-08T15:35:52.858Z,72.23
2022-12-08T15:38:24.626Z,72.75
2022-12-08T15:40:53.004Z,73.24
2022-12-08T15:43:20.973Z,73.05
2022-12-08T15:45:58.446Z,73.37
2022-12-08T15:48:29.075Z,73.38
2022-12-08T15:51:00.688Z,71.51
2022-12-08T15:53:28.531Z,71.22
2022-12-08T15:58:59.918Z,68.92
2022-12-08T16:01:28.090Z,68.98
2022-12-08T16:09:39.393Z,68.43
2022-12-08T16:12:48.094Z,68.16
2022-12-08T16:18:05.866Z,67.72
2022-12-08T16:23:41.514Z,67.38
2022-12-08T16:26:26.117Z,67.62
2022-12-08T16:29:00.978Z,67.39
2022-12-08T16:31:28.920Z,67.24
2022-12-08T16:33:56.805Z,66.86
2022-12-08T16:36:26.750Z,67.56
2022-12-08T16:38:55.942Z,67.44
2022-12-08T16:41:41.177Z,67.12
2022-12-08T16:44:09.027Z,68.00
2022-12-08T16:46:37.197Z,67.47
2022-12-08T16:49:08.811Z,67.92
2022-12-08T16:51:36.677Z,67.92
2022-12-08T16:54:05.961Z,68.87
2022-12-08T16:56:33.909Z,68.89
2022-12-08T16:59:02.474Z,68.26
2022-12-08T17:01:31.248Z,69.00
2022-12-08T17:04:31.084Z,69.05
2022-12-08T17:06:47.190Z,68.44
2022-12-08T17:09:17.512Z,69.57
2022-12-08T17:11:45.696Z,69.50
2022-12-08T17:14:14.018Z,69.21
2022-12-08T17:16:42.098Z,70.46
2022-12-08T17:19:10.108Z,70.15
2022-12-08T17:21:37.977Z,69.08
2022-12-08T17:24:06.388Z,68.92
2022-12-08T17:26:35.720Z,69.59
2022-12-08T17:29:06.114Z,69.31
2022-12-08T17:31:34.488Z,70.08
2022-12-08T17:34:02.951Z,70.05
2022-12-08T17:36:30.799Z,70.38
2022-12-08T17:39:01.083Z,70.42
2022-12-08T17:41:29.631Z,70.89
2022-12-08T17:43:58.978Z,70.98
2022-12-08T17:46:26.943Z,71.09
2022-12-08T17:48:55.076Z,71.30
2022-12-08T17:51:22.853Z,72.25
2022-12-08T17:53:51.259Z,71.80
2022-12-08T17:56:20.892Z,71.88
2022-12-08T17:58:54.228Z,72.28
2022-12-08T18:01:24.432Z,72.18
2022-12-08T18:03:52.777Z,72.27
2022-12-08T18:06:20.631Z,72.45
2022-12-08T18:08:48.694Z,73.02
2022-12-08T18:11:19.331Z,73.06
2022-12-08T18:13:48.195Z,73.82
2022-12-08T18:16:17.591Z,73.96
2022-12-08T18:18:46.755Z,74.42
2022-12-08T18:21:21.471Z,75.18
2022-12-08T18:23:51.421Z,74.81
2022-12-08T18:26:19.432Z,75.34
2022-12-08T18:28:50.074Z,74.79
2022-12-08T18:31:20.596Z,75.06
2022-12-08T18:33:50.801Z,75.78
2022-12-08T18:36:21.649Z,75.78
2022-12-08T18:38:50.016Z,76.10
2022-12-08T18:41:20.031Z,75.32
2022-12-08T18:43:47.913Z,76.13
2022-12-08T18:46:17.547Z,76.16
2022-12-08T18:48:47.310Z,76.44
2022-12-08T18:51:20.914Z,77.19
2022-12-08T18:53:49.401Z,77.65
2022-12-08T18:56:25.060Z,77.19
2022-12-08T18:58:52.983Z,76.65
2022-12-08T19:01:20.867Z,78.28
2022-12-08T19:06:40.196Z,78.12
2022-12-08T19:09:12.566Z,78.65
2022-12-08T19:11:40.585Z,78.36
2022-12-08T19:14:09.269Z,78.58
2022-12-08T19:16:37.174Z,78.37
2022-12-08T19:19:05.565Z,77.57
2022-12-08T19:21:35.620Z,79.43
2022-12-08T19:24:05.335Z,79.81
2022-12-08T19:26:33.118Z,79.61
2022-12-08T19:29:02.981Z,78.70
2022-12-08T19:31:31.013Z,78.77
2022-12-08T19:33:58.812Z,80.33
2022-12-08T19:36:27.656Z,80.36
2022-12-08T19:39:12.865Z,79.20
2022-12-08T19:41:59.368Z,80.27
2022-12-08T19:44:47.311Z,81.42
2022-12-08T19:47:15.424Z,81.88
2022-12-08T19:49:43.566Z,81.10
2022-12-08T19:52:13.684Z,80.85
2022-12-08T19:54:47.103Z,80.64
2022-12-08T19:57:20.310Z,84.73
2022-12-08T19:59:51.740Z,84.04
2022-12-08T20:02:24.232Z,84.43
2022-12-08T20:04:52.154Z,84.02
2022-12-08T20:07:20.247Z,82.42
2022-12-08T20:09:48.162Z,82.56
2022-12-08T20:12:16.182Z,81.62
2022-12-08T20:14:46.261Z,82.44
2022-12-08T20:17:14.278Z,81.72
2022-12-08T20:19:42.248Z,80.97
2022-12-08T20:22:12.377Z,82.70
2022-12-08T20:24:40.169Z,82.38
2022-12-08T20:27:08.009Z,82.49
2022-12-08T20:29:35.876Z,82.15
2022-12-08T20:32:05.471Z,81.81
2022-12-08T20:34:34.558Z,82.04
2022-12-08T20:37:04.796Z,82.33
2022-12-08T20:39:32.622Z,83.50
2022-12-08T20:42:00.547Z,82.34
2022-12-08T20:44:29.342Z,82.63
2022-12-08T20:46:57.576Z,81.56
2022-12-08T20:49:32.784Z,83.39
2022-12-08T20:52:02.292Z,81.93
2022-12-08T20:54:30.104Z,82.05
2022-12-08T20:56:58.138Z,81.62
2022-12-08T20:59:27.010Z,81.65
2022-12-08T21:01:55.356Z,81.31
2022-12-08T21:04:24.059Z,80.90
2022-12-08T21:06:56.639Z,80.51
2022-12-08T21:09:24.791Z,80.13
2022-12-08T21:11:54.920Z,80.53
2022-12-08T21:14:22.768Z,80.35
2022-12-08T21:16:51.065Z,80.69
2022-12-08T21:19:21.710Z,80.86
2022-12-08T21:21:50.782Z,80.33
2022-12-08T21:24:20.671Z,79.94
2022-12-08T21:26:48.927Z,82.17
2022-12-08T21:29:16.996Z,81.87
2022-12-08T21:31:44.995Z,81.34
2022-12-08T21:34:15.021Z,80.72
2022-12-08T21:36:42.850Z,81.83
2022-12-08T21:39:12.933Z,81.28
2022-12-08T21:41:59.605Z,81.37
2022-12-08T21:44:27.772Z,80.31
2022-12-08T21:46:55.738Z,81.43
2022-12-08T21:49:23.572Z,80.81
2022-12-08T21:51:51.645Z,80.75
2022-12-08T21:54:19.687Z,79.94
2022-12-08T21:56:51.669Z,80.42
2022-12-08T21:59:21.956Z,82.64
2022-12-08T22:01:49.975Z,83.51
2022-12-08T22:04:21.340Z,83.09
2022-12-08T22:06:51.694Z,82.84
2022-12-08T22:09:19.661Z,82.53
2022-12-08T22:11:47.888Z,82.59
2022-12-08T22:14:17.122Z,81.74
2022-12-08T22:16:45.322Z,81.57
2022-12-08T22:19:13.545Z,80.23
2022-12-08T22:21:41.588Z,81.19
2022-12-08T22:24:10.360Z,82.79
2022-12-08T22:26:38.309Z,83.58
2022-12-08T22:29:06.345Z,83.60
2022-12-08T22:31:35.779Z,83.38
2022-12-08T22:34:03.812Z,83.69
2022-12-08T22:36:31.830Z,83.21
2022-12-08T22:38:59.626Z,82.37
2022-12-08T22:41:27.454Z,81.26
2022-12-08T22:43:55.579Z,82.36
2022-12-08T22:46:25.958Z,83.29
2022-12-08T22:48:55.868Z,82.77
2022-12-08T22:51:23.790Z,82.55
2022-12-08T22:53:52.158Z,82.32
2022-12-08T22:56:20.311Z,81.90
2022-12-08T22:58:51.241Z,81.54
2022-12-08T23:01:26.667Z,81.96
2022-12-08T23:03:56.572Z,81.33
2022-12-08T23:06:25.065Z,80.60
2022-12-08T23:08:54.154Z,80.20
2022-12-08T23:11:23.940Z,80.82
2022-12-08T23:13:56.251Z,81.01
2022-12-08T23:16:24.521Z,82.34
2022-12-08T23:18:52.346Z,82.56
2022-12-08T23:21:23.981Z,82.03
2022-12-08T23:23:52.001Z,80.95
2022-12-08T23:26:23.365Z,80.91
2022-12-08T23:28:51.902Z,80.54
2022-12-08T23:31:20.529Z,81.40
2022-12-08T23:33:48.690Z,81.77
2022-12-08T23:36:17.863Z,81.84
2022-12-08T23:38:50.005Z,80.94
2022-12-08T23:41:17.873Z,81.37
2022-12-08T23:43:46.956Z,82.62
2022-12-08T23:46:14.992Z,82.50
2022-12-08T23:48:45.563Z,81.78
2022-12-08T23:51:14.093Z,81.48
2022-12-08T23:53:42.724Z,81.79
2022-12-08T23:56:14.438Z,81.52
2022-12-08T23:58:43.235Z,81.50
